CAT,Max TemperatureF,Mean TemperatureF,Min TemperatureF,Max Dew PointF,MeanDew PointF,Min DewpointF,Max Humidity, Mean Humidity, Min Humidity, Max Sea Level PressureIn, Mean Sea Level PressureIn, Min Sea Level PressureIn, Max VisibilityMiles, Mean VisibilityMiles, Min VisibilityMiles, Max Wind SpeedMPH, Mean Wind SpeedMPH, Max Gust SpeedMPH,PrecipitationIn, CloudCover, Events, WindDirDegrees
2012-9-1,95,77,59,54,48,37,63,34,15,30.12,30.05,30.01,6,6,6,12,5,,0.00,,,208
2012-9-2,95,76,58,46,41,36,39,27,12,30.21,30.15,30.09,6,6,6,13,10,,0.00,,,163
2012-9-3,96,76,55,59,50,19,77,40,13,30.21,30.12,30.04,6,6,6,10,7,,0.00,,,114
2012-9-4,97,78,59,63,50,45,88,36,12,30.12,30.05,29.98,6,6,6,13,5,,0.00,,,31
2012-9-5,94,78,63,55,50,32,56,32,17,30.06,30.01,29.95,6,6,6,14,8,,0.00,,,314
2012-9-6,81,69,57,41,34,30,67,27,8,30.15,30.09,30.04,6,6,6,13,9,,0.00,,,186
2012-9-7,81,72,62,43,41,37,45,28,15,30.12,30.08,30.04,6,6,6,10,6,,0.00,,,190
2012-9-8,85,66,48,50,44,32,67,37,23,30.15,30.09,30.01,6,6,6,12,7,,0.00,,,149
2012-9-9,89,70,52,52,47,41,55,39,22,30.12,30.05,29.98,6,6,6,10,6,,0.00,,,30
2012-9-10,93,76,58,52,46,36,52,34,12,30.09,30.03,29.98,6,6,6,9,6,,0.00,,,29
2012-9-11,96,78,59,54,44,34,49,31,12,30.12,30.06,29.98,6,6,6,12,6,,0.00,,,91
2012-9-12,92,78,63,59,53,46,56,41,20,30.15,30.07,30.01,6,6,6,17,9,,0.00,,,80
2012-9-13,90,77,64,61,57,52,69,48,27,30.12,30.05,30.01,6,6,6,8,5,,0.00,,,13
2012-9-14,95,80,64,57,49,36,56,34,18,30.09,30.05,29.98,6,6,6,13,6,,0.00,1,,187
2012-9-15,93,78,64,66,50,43,52,37,19,30.21,30.13,30.06,6,5,1,20,8,31,0.00,,,86
2012-9-16,88,74,61,59,55,46,68,45,29,30.27,30.17,30.09,6,6,6,20,13,,0.00,,,101
2012-9-17,86,74,62,57,54,46,77,47,28,30.30,30.15,30.06,6,6,6,17,11,,0.00,1,,110
2012-9-18,90,71,52,54,49,44,63,39,16,30.15,30.08,30.01,6,6,6,15,7,,0.00,,,111
2012-9-19,93,80,68,57,50,43,59,38,16,30.12,30.05,29.95,6,6,6,13,6,,0.00,,,78
2012-9-20,96,80,63,57,51,45,60,33,12,30.06,30.00,29.92,6,6,6,12,6,,0.00,1,,53
2012-9-21,96,82,69,55,51,46,53,34,12,30.01,29.96,29.89,6,6,6,15,6,,0.00,,,45
2012-9-22,,,,,,,,,,,,,,,,,,,,,,
2012-9-23,,,,,,,,,,,,,,,,,,,0.00,,,-1
2012-9-24,92,78,63,46,39,30,36,24,13,30.12,30.04,29.98,6,6,6,20,10,,0.00,,,175
2012-9-25,96,76,57,52,46,34,36,25,13,30.09,30.00,29.92,6,6,6,17,9,,0.00,,,130
2012-9-26,95,80,66,66,60,55,64,47,34,30.09,30.01,29.92,6,6,6,16,12,,0.00,1,,59
2012-9-27,97,82,67,64,60,55,68,42,28,30.04,29.96,29.89,6,6,6,15,7,,0.00,1,,347
2012-9-28,93,82,71,63,57,39,65,42,23,30.09,30.00,29.92,6,6,6,17,7,,0.00,3,Rain,236
2012-9-29,84,68,53,48,39,32,42,31,15,30.24,30.13,30.06,6,6,6,18,11,,0.00,,,172
2012-9-30,91,72,52,54,43,34,44,30,17,30.18,30.11,30.04,6,6,6,15,8,,0.00,,,149